sensor_id;sensor_type;location;lat;lon;timestamp;pressure;altitude;pressure_sealevel;temperature;humidity
51297;BME280;37380;45.186;9.792;2022-07-11T00:00:13;101050.31;;;23.25;79.54
51297;BME280;37380;45.186;9.792;2022-07-11T00:02:41;101048.44;;;23.33;78.67
51297;BME280;37380;45.186;9.792;2022-07-11T00:05:09;101044.78;;;23.42;78.12
51297;BME280;37380;45.186;9.792;2022-07-11T00:07:39;100999.81;;;23.13;78.15
51297;BME280;37380;45.186;9.792;2022-07-11T00:10:15;101047.56;;;23.30;78.78
51297;BME280;37380;45.186;9.792;2022-07-11T00:13:19;101059.94;;;23.37;78.60
51297;BME280;37380;45.186;9.792;2022-07-11T00:16:23;101056.41;;;23.36;77.93
51297;BME280;37380;45.186;9.792;2022-07-11T00:19:29;101019.50;;;23.01;78.94
51297;BME280;37380;45.186;9.792;2022-07-11T00:22:29;101045.94;;;23.19;78.45
51297;BME280;37380;45.186;9.792;2022-07-11T00:24:56;101037.25;;;23.02;79.33
51297;BME280;37380;45.186;9.792;2022-07-11T00:27:25;100994.78;;;22.85;78.41
51297;BME280;37380;45.186;9.792;2022-07-11T00:29:52;101028.31;;;23.06;78.41
51297;BME280;37380;45.186;9.792;2022-07-11T00:32:25;101005.47;;;22.83;78.40
51297;BME280;37380;45.186;9.792;2022-07-11T00:34:52;100979.00;;;22.65;78.71
51297;BME280;37380;45.186;9.792;2022-07-11T00:37:20;101041.75;;;22.94;78.71
51297;BME280;37380;45.186;9.792;2022-07-11T00:39:47;101073.66;;;23.04;79.07
51297;BME280;37380;45.186;9.792;2022-07-11T00:42:18;101047.28;;;22.74;80.37
51297;BME280;37380;45.186;9.792;2022-07-11T00:44:48;101041.03;;;22.76;79.80
51297;BME280;37380;45.186;9.792;2022-07-11T00:47:23;101048.03;;;22.88;78.38
51297;BME280;37380;45.186;9.792;2022-07-11T00:49:58;101068.44;;;22.92;79.04
51297;BME280;37380;45.186;9.792;2022-07-11T00:53:01;101000.56;;;22.41;79.69
51297;BME280;37380;45.186;9.792;2022-07-11T00:55:31;101064.16;;;22.71;80.11
51297;BME280;37380;45.186;9.792;2022-07-11T00:57:58;100985.66;;;22.15;80.38
51297;BME280;37380;45.186;9.792;2022-07-11T01:00:25;101048.19;;;22.71;79.40
51297;BME280;37380;45.186;9.792;2022-07-11T01:02:54;101034.03;;;22.69;78.68
51297;BME280;37380;45.186;9.792;2022-07-11T01:05:24;101035.88;;;22.61;79.02
51297;BME280;37380;45.186;9.792;2022-07-11T01:07:52;101081.72;;;22.97;78.09
51297;BME280;37380;45.186;9.792;2022-07-11T01:10:26;101080.00;;;22.88;78.70
51297;BME280;37380;45.186;9.792;2022-07-11T01:13:22;101013.88;;;22.41;79.09
51297;BME280;37380;45.186;9.792;2022-07-11T01:16:15;101011.22;;;22.39;79.26
51297;BME280;37380;45.186;9.792;2022-07-11T01:18:54;101059.06;;;22.50;79.88
51297;BME280;37380;45.186;9.792;2022-07-11T01:23:54;101084.72;;;22.58;79.67
51297;BME280;37380;45.186;9.792;2022-07-11T01:26:25;101036.03;;;22.46;80.10
51297;BME280;37380;45.186;9.792;2022-07-11T01:29:10;100976.97;;;21.95;80.10
51297;BME280;37380;45.186;9.792;2022-07-11T01:32:17;101075.88;;;22.55;80.12
51297;BME280;37380;45.186;9.792;2022-07-11T01:35:14;101077.69;;;22.50;80.43
51297;BME280;37380;45.186;9.792;2022-07-11T01:37:44;101055.56;;;22.42;80.18
51297;BME280;37380;45.186;9.792;2022-07-11T01:40:17;100986.78;;;21.86;81.12
51297;BME280;37380;45.186;9.792;2022-07-11T01:42:47;101047.69;;;22.29;80.74
51297;BME280;37380;45.186;9.792;2022-07-11T01:45:17;101026.59;;;22.00;81.20
51297;BME280;37380;45.186;9.792;2022-07-11T01:47:44;101065.47;;;22.24;82.07
51297;BME280;37380;45.186;9.792;2022-07-11T01:50:19;101035.34;;;22.13;81.97
51297;BME280;37380;45.186;9.792;2022-07-11T01:52:47;101020.38;;;22.03;81.12
51297;BME280;37380;45.186;9.792;2022-07-11T01:55:16;101041.63;;;22.06;82.05
51297;BME280;37380;45.186;9.792;2022-07-11T01:58:24;101061.94;;;22.19;81.11
51297;BME280;37380;45.186;9.792;2022-07-11T02:00:58;101073.38;;;22.35;80.69
51297;BME280;37380;45.186;9.792;2022-07-11T02:03:59;101065.44;;;22.29;80.82
51297;BME280;37380;45.186;9.792;2022-07-11T02:06:27;101042.47;;;22.09;81.23
51297;BME280;37380;45.186;9.792;2022-07-11T02:09:02;100994.75;;;21.91;80.89
51297;BME280;37380;45.186;9.792;2022-07-11T02:11:57;101000.81;;;22.07;80.10
51297;BME280;37380;45.186;9.792;2022-07-11T02:14:27;101068.09;;;22.29;81.45
51297;BME280;37380;45.186;9.792;2022-07-11T02:17:01;101007.97;;;21.96;81.39
51297;BME280;37380;45.186;9.792;2022-07-11T02:19:29;100977.91;;;21.84;81.59
51297;BME280;37380;45.186;9.792;2022-07-11T02:22:01;101066.28;;;22.34;81.70
51297;BME280;37380;45.186;9.792;2022-07-11T02:24:37;101073.41;;;22.30;82.09
51297;BME280;37380;45.186;9.792;2022-07-11T02:27:10;101019.41;;;22.10;81.11
51297;BME280;37380;45.186;9.792;2022-07-11T02:29:46;101061.88;;;22.30;82.03
51297;BME280;37380;45.186;9.792;2022-07-11T02:32:55;101000.06;;;21.86;82.20
51297;BME280;37380;45.186;9.792;2022-07-11T02:35:53;100993.06;;;21.76;82.75
51297;BME280;37380;45.186;9.792;2022-07-11T02:38:30;101045.09;;;22.19;82.27
51297;BME280;37380;45.186;9.792;2022-07-11T02:40:57;101069.06;;;22.19;83.27
51297;BME280;37380;45.186;9.792;2022-07-11T02:43:28;100988.75;;;21.55;84.36
51297;BME280;37380;45.186;9.792;2022-07-11T02:46:02;101077.09;;;22.05;84.09
51297;BME280;37380;45.186;9.792;2022-07-11T02:48:33;101029.41;;;21.77;83.74
51297;BME280;37380;45.186;9.792;2022-07-11T02:51:01;101015.25;;;21.69;83.77
51297;BME280;37380;45.186;9.792;2022-07-11T02:53:31;101057.72;;;21.86;83.98
51297;BME280;37380;45.186;9.792;2022-07-11T02:56:11;101094.88;;;22.00;84.68
51297;BME280;37380;45.186;9.792;2022-07-11T02:58:50;101083.38;;;21.95;84.98
51297;BME280;37380;45.186;9.792;2022-07-11T03:01:27;101027.66;;;21.73;84.13
51297;BME280;37380;45.186;9.792;2022-07-11T03:04:35;101065.66;;;21.93;84.70
51297;BME280;37380;45.186;9.792;2022-07-11T03:07:30;101063.78;;;22.06;84.10
51297;BME280;37380;45.186;9.792;2022-07-11T03:10:02;101094.84;;;22.06;85.22
51297;BME280;37380;45.186;9.792;2022-07-11T03:12:36;101098.44;;;21.96;85.74
51297;BME280;37380;45.186;9.792;2022-07-11T03:15:08;101094.00;;;21.98;85.65
51297;BME280;37380;45.186;9.792;2022-07-11T03:17:37;101060.44;;;21.72;86.42
51297;BME280;37380;45.186;9.792;2022-07-11T03:20:11;101110.91;;;21.93;86.12
51297;BME280;37380;45.186;9.792;2022-07-11T03:22:41;101110.00;;;21.90;86.64
51297;BME280;37380;45.186;9.792;2022-07-11T03:25:12;101031.38;;;21.40;87.70
51297;BME280;37380;45.186;9.792;2022-07-11T03:27:47;101104.72;;;21.85;87.26
51297;BME280;37380;45.186;9.792;2022-07-11T03:30:15;101077.34;;;21.68;88.79
51297;BME280;37380;45.186;9.792;2022-07-11T03:32:42;101082.63;;;21.74;87.90
51297;BME280;37380;45.186;9.792;2022-07-11T03:35:20;101075.53;;;21.72;88.56
51297;BME280;37380;45.186;9.792;2022-07-11T03:38:33;101054.31;;;21.61;89.62
51297;BME280;37380;45.186;9.792;2022-07-11T03:41:32;101108.25;;;21.84;89.97
51297;BME280;37380;45.186;9.792;2022-07-11T03:44:01;101083.50;;;21.75;89.39
51297;BME280;37380;45.186;9.792;2022-07-11T03:46:31;101084.34;;;21.78;89.50
51297;BME280;37380;45.186;9.792;2022-07-11T03:48:58;101106.47;;;21.89;89.55
51297;BME280;37380;45.186;9.792;2022-07-11T03:51:29;101130.31;;;22.05;89.66
51297;BME280;37380;45.186;9.792;2022-07-11T03:54:16;101068.47;;;21.66;90.87
51297;BME280;37380;45.186;9.792;2022-07-11T03:56:46;101095.88;;;21.80;90.55
51297;BME280;37380;45.186;9.792;2022-07-11T03:59:20;101073.72;;;21.75;89.62
51297;BME280;37380;45.186;9.792;2022-07-11T04:01:55;101098.44;;;21.96;88.67
51297;BME280;37380;45.186;9.792;2022-07-11T04:05:01;101038.31;;;21.67;88.60
51297;BME280;37380;45.186;9.792;2022-07-11T04:08:13;101090.44;;;21.99;88.87
51297;BME280;37380;45.186;9.792;2022-07-11T04:10:40;101104.56;;;22.11;88.62
51297;BME280;37380;45.186;9.792;2022-07-11T04:15:54;101084.22;;;22.03;89.21
51297;BME280;37380;45.186;9.792;2022-07-11T04:18:21;101102.78;;;22.18;88.49
51297;BME280;37380;45.186;9.792;2022-07-11T04:20:57;101113.00;;;22.75;86.53
51297;BME280;37380;45.186;9.792;2022-07-11T04:23:40;101056.53;;;23.25;81.49
51297;BME280;37380;45.186;9.792;2022-07-11T04:26:15;101129.91;;;24.27;77.26
51297;BME280;37380;45.186;9.792;2022-07-11T04:28:46;101117.66;;;24.10;78.33
51297;BME280;37380;45.186;9.792;2022-07-11T04:31:14;101066.69;;;23.64;77.69
51297;BME280;37380;45.186;9.792;2022-07-11T04:33:54;101045.06;;;23.19;80.52
51297;BME280;37380;45.186;9.792;2022-07-11T04:36:21;101139.72;;;23.55;81.21
51297;BME280;37380;45.186;9.792;2022-07-11T04:38:52;101062.50;;;23.44;79.42
51297;BME280;37380;45.186;9.792;2022-07-11T04:41:29;101129.56;;;25.01;74.07
51297;BME280;37380;45.186;9.792;2022-07-11T04:44:08;101061.94;;;24.48;73.93
51297;BME280;37380;45.186;9.792;2022-07-11T04:47:12;101062.06;;;24.90;71.51
51297;BME280;37380;45.186;9.792;2022-07-11T04:50:13;101095.88;;;25.82;69.67
51297;BME280;37380;45.186;9.792;2022-07-11T04:52:41;101038.31;;;25.63;67.01
51297;BME280;37380;45.186;9.792;2022-07-11T04:55:14;101149.44;;;27.31;62.61
51297;BME280;37380;45.186;9.792;2022-07-11T04:57:45;101146.00;;;27.25;62.48
51297;BME280;37380;45.186;9.792;2022-07-11T05:00:22;101160.72;;;27.43;62.56
51297;BME280;37380;45.186;9.792;2022-07-11T05:02:59;101152.53;;;27.80;61.33
51297;BME280;37380;45.186;9.792;2022-07-11T05:06:01;101165.94;;;28.39;58.25
51297;BME280;37380;45.186;9.792;2022-07-11T05:08:29;101163.38;;;28.35;58.56
51297;BME280;37380;45.186;9.792;2022-07-11T05:10:56;101145.13;;;28.46;58.07
51297;BME280;37380;45.186;9.792;2022-07-11T05:13:36;101134.91;;;29.36;55.88
51297;BME280;37380;45.186;9.792;2022-07-11T05:16:16;101089.03;;;29.14;55.27
51297;BME280;37380;45.186;9.792;2022-07-11T05:19:18;101137.81;;;29.29;56.63
51297;BME280;37380;45.186;9.792;2022-07-11T05:22:00;101176.81;;;29.68;56.67
51297;BME280;37380;45.186;9.792;2022-07-11T05:24:27;101141.06;;;30.55;52.51
51297;BME280;37380;45.186;9.792;2022-07-11T05:26:57;101109.53;;;30.35;52.25
51297;BME280;37380;45.186;9.792;2022-07-11T05:29:26;101108.16;;;31.10;49.34
51297;BME280;37380;45.186;9.792;2022-07-11T05:32:00;101176.91;;;32.76;46.38
51297;BME280;37380;45.186;9.792;2022-07-11T05:34:28;101174.31;;;33.44;43.88
51297;BME280;37380;45.186;9.792;2022-07-11T05:36:58;101175.13;;;33.29;44.13
51297;BME280;37380;45.186;9.792;2022-07-11T05:39:37;101104.69;;;30.86;49.48
51297;BME280;37380;45.186;9.792;2022-07-11T05:42:26;101184.91;;;30.82;52.06
51297;BME280;37380;45.186;9.792;2022-07-11T05:45:00;101193.22;;;30.76;52.25
51297;BME280;37380;45.186;9.792;2022-07-11T05:47:30;101152.16;;;30.70;51.35
51297;BME280;37380;45.186;9.792;2022-07-11T05:50:05;101066.03;;;29.53;53.13
51297;BME280;37380;45.186;9.792;2022-07-11T05:52:38;101209.97;;;29.93;55.20
51297;BME280;37380;45.186;9.792;2022-07-11T05:55:09;101185.50;;;30.23;53.23
51297;BME280;37380;45.186;9.792;2022-07-11T05:57:46;101198.19;;;30.43;52.81
51297;BME280;37380;45.186;9.792;2022-07-11T06:00:15;101196.81;;;29.36;55.28
51297;BME280;37380;45.186;9.792;2022-07-11T06:02:52;101200.06;;;28.65;59.21
51297;BME280;37380;45.186;9.792;2022-07-11T06:05:58;101189.94;;;29.27;57.60
51297;BME280;37380;45.186;9.792;2022-07-11T06:08:57;101190.47;;;30.78;52.29
51297;BME280;37380;45.186;9.792;2022-07-11T06:11:26;101192.56;;;29.53;56.58
51297;BME280;37380;45.186;9.792;2022-07-11T06:14:01;101183.94;;;30.16;54.29
51297;BME280;37380;45.186;9.792;2022-07-11T06:16:28;101189.22;;;30.19;54.93
51297;BME280;37380;45.186;9.792;2022-07-11T06:18:58;101137.53;;;30.08;54.06
51297;BME280;37380;45.186;9.792;2022-07-11T06:21:26;101166.72;;;29.73;56.00
51297;BME280;37380;45.186;9.792;2022-07-11T06:24:03;101159.03;;;30.77;51.96
51297;BME280;37380;45.186;9.792;2022-07-11T06:26:37;101210.97;;;30.60;54.29
51297;BME280;37380;45.186;9.792;2022-07-11T06:29:31;101179.88;;;29.32;58.98
51297;BME280;37380;45.186;9.792;2022-07-11T06:31:58;101194.47;;;30.67;53.17
51297;BME280;37380;45.186;9.792;2022-07-11T06:34:25;101193.50;;;32.13;49.08
51297;BME280;37380;45.186;9.792;2022-07-11T06:36:54;101208.41;;;30.35;55.01
51297;BME280;37380;45.186;9.792;2022-07-11T06:39:24;101204.00;;;31.41;51.86
51297;BME280;37380;45.186;9.792;2022-07-11T06:41:51;101190.50;;;31.41;51.19
51297;BME280;37380;45.186;9.792;2022-07-11T06:44:20;101205.50;;;30.16;55.61
51297;BME280;37380;45.186;9.792;2022-07-11T06:46:54;101210.22;;;31.00;53.32
51297;BME280;37380;45.186;9.792;2022-07-11T06:49:21;101183.38;;;30.75;53.35
51297;BME280;37380;45.186;9.792;2022-07-11T06:51:48;101155.75;;;30.68;52.78
51297;BME280;37380;45.186;9.792;2022-07-11T06:54:16;101202.06;;;30.36;54.96
51297;BME280;37380;45.186;9.792;2022-07-11T06:56:43;101200.72;;;31.12;51.86
51297;BME280;37380;45.186;9.792;2022-07-11T06:59:10;101216.63;;;30.32;54.63
51297;BME280;37380;45.186;9.792;2022-07-11T07:01:44;101176.34;;;29.55;56.88
51297;BME280;37380;45.186;9.792;2022-07-11T07:04:45;101201.50;;;30.50;52.77
51297;BME280;37380;45.186;9.792;2022-07-11T07:07:46;101191.53;;;31.77;48.87
51297;BME280;37380;45.186;9.792;2022-07-11T07:10:30;101203.94;;;31.00;51.33
51297;BME280;37380;45.186;9.792;2022-07-11T07:12:57;101193.03;;;31.64;48.08
51297;BME280;37380;45.186;9.792;2022-07-11T07:15:24;101204.06;;;31.99;48.68
51297;BME280;37380;45.186;9.792;2022-07-11T07:17:51;101228.56;;;30.25;50.95
51297;BME280;37380;45.186;9.792;2022-07-11T07:20:28;101216.88;;;30.48;50.48
51297;BME280;37380;45.186;9.792;2022-07-11T07:22:56;101225.00;;;32.52;44.45
51297;BME280;37380;45.186;9.792;2022-07-11T07:25:23;101222.19;;;32.35;44.89
51297;BME280;37380;45.186;9.792;2022-07-11T07:27:50;101183.88;;;30.63;49.82
51297;BME280;37380;45.186;9.792;2022-07-11T07:30:17;101195.56;;;30.63;49.86
51297;BME280;37380;45.186;9.792;2022-07-11T07:32:44;101196.16;;;30.03;51.27
51297;BME280;37380;45.186;9.792;2022-07-11T07:35:11;101150.75;;;29.92;51.32
51297;BME280;37380;45.186;9.792;2022-07-11T07:37:38;101222.63;;;30.38;50.93
51297;BME280;37380;45.186;9.792;2022-07-11T07:40:12;101226.94;;;31.92;45.70
51297;BME280;37380;45.186;9.792;2022-07-11T07:43:07;101217.75;;;32.34;45.85
51297;BME280;37380;45.186;9.792;2022-07-11T07:45:34;101217.19;;;31.26;47.82
51297;BME280;37380;45.186;9.792;2022-07-11T07:48:01;101201.38;;;30.97;49.42
51297;BME280;37380;45.186;9.792;2022-07-11T07:50:28;101226.16;;;30.62;50.56
51297;BME280;37380;45.186;9.792;2022-07-11T07:52:55;101186.56;;;31.27;47.17
51297;BME280;37380;45.186;9.792;2022-07-11T07:55:22;101188.00;;;31.56;47.43
51297;BME280;37380;45.186;9.792;2022-07-11T07:57:49;101208.56;;;31.59;46.69
51297;BME280;37380;45.186;9.792;2022-07-11T08:00:23;101226.91;;;31.10;49.59
51297;BME280;37380;45.186;9.792;2022-07-11T08:03:42;101210.06;;;30.83;50.22
51297;BME280;37380;45.186;9.792;2022-07-11T08:06:37;101220.72;;;30.64;50.29
51297;BME280;37380;45.186;9.792;2022-07-11T08:09:05;101229.44;;;32.15;46.16
51297;BME280;37380;45.186;9.792;2022-07-11T08:11:33;101219.38;;;32.00;46.96
51297;BME280;37380;45.186;9.792;2022-07-11T08:14:01;101211.81;;;32.25;46.27
51297;BME280;37380;45.186;9.792;2022-07-11T08:16:29;101208.81;;;31.73;47.78
51297;BME280;37380;45.186;9.792;2022-07-11T08:19:02;101197.78;;;31.39;48.52
51297;BME280;37380;45.186;9.792;2022-07-11T08:21:31;101236.22;;;30.12;52.44
51297;BME280;37380;45.186;9.792;2022-07-11T08:23:59;101222.84;;;29.85;53.72
51297;BME280;37380;45.186;9.792;2022-07-11T08:26:26;101227.69;;;30.24;53.00
51297;BME280;37380;45.186;9.792;2022-07-11T08:29:03;101190.53;;;30.32;53.96
51297;BME280;37380;45.186;9.792;2022-07-11T08:31:37;101189.59;;;29.86;52.66
51297;BME280;37380;45.186;9.792;2022-07-11T08:34:38;101224.56;;;29.88;55.17
51297;BME280;37380;45.186;9.792;2022-07-11T08:37:39;101213.13;;;30.52;52.73
51297;BME280;37380;45.186;9.792;2022-07-11T08:40:08;101185.19;;;30.07;54.43
51297;BME280;37380;45.186;9.792;2022-07-11T08:42:40;101221.63;;;29.94;53.47
51297;BME280;37380;45.186;9.792;2022-07-11T08:47:39;101210.25;;;29.62;58.09
51297;BME280;37380;45.186;9.792;2022-07-11T08:50:09;101212.72;;;30.39;51.69
51297;BME280;37380;45.186;9.792;2022-07-11T08:52:37;101217.72;;;31.56;48.74
51297;BME280;37380;45.186;9.792;2022-07-11T08:55:05;101164.69;;;30.93;48.15
51297;BME280;37380;45.186;9.792;2022-07-11T08:57:36;101225.03;;;30.68;52.41
51297;BME280;37380;45.186;9.792;2022-07-11T09:00:05;101223.91;;;30.28;51.58
51297;BME280;37380;45.186;9.792;2022-07-11T09:02:41;101225.66;;;31.19;48.40
51297;BME280;37380;45.186;9.792;2022-07-11T09:05:43;101219.22;;;32.03;45.67
51297;BME280;37380;45.186;9.792;2022-07-11T09:08:41;101194.66;;;31.68;46.19
51297;BME280;37380;45.186;9.792;2022-07-11T09:11:08;101222.75;;;31.64;46.14
51297;BME280;37380;45.186;9.792;2022-07-11T09:13:36;101215.94;;;30.71;49.30
51297;BME280;37380;45.186;9.792;2022-07-11T09:16:05;101226.31;;;30.12;51.77
51297;BME280;37380;45.186;9.792;2022-07-11T09:21:10;101231.09;;;29.55;55.05
51297;BME280;37380;45.186;9.792;2022-07-11T09:23:58;101223.09;;;29.79;54.70
51297;BME280;37380;45.186;9.792;2022-07-11T09:26:45;101204.25;;;30.03;53.03
51297;BME280;37380;45.186;9.792;2022-07-11T09:29:14;101225.19;;;30.41;53.37
51297;BME280;37380;45.186;9.792;2022-07-11T09:31:42;101230.00;;;30.33;49.80
51297;BME280;37380;45.186;9.792;2022-07-11T09:34:19;101222.31;;;30.68;49.51
51297;BME280;37380;45.186;9.792;2022-07-11T09:36:51;101210.19;;;29.87;52.25
51297;BME280;37380;45.186;9.792;2022-07-11T09:39:28;101217.38;;;29.38;54.56
51297;BME280;37380;45.186;9.792;2022-07-11T09:41:56;101201.53;;;29.54;54.08
51297;BME280;37380;45.186;9.792;2022-07-11T09:44:31;101205.25;;;29.75;52.82
51297;BME280;37380;45.186;9.792;2022-07-11T09:50:39;101209.88;;;30.87;48.54
51297;BME280;37380;45.186;9.792;2022-07-11T09:53:14;101199.03;;;31.09;50.70
51297;BME280;37380;45.186;9.792;2022-07-11T09:55:45;101205.31;;;32.11;45.90
51297;BME280;37380;45.186;9.792;2022-07-11T09:58:17;101199.13;;;30.18;50.26
51297;BME280;37380;45.186;9.792;2022-07-11T10:00:45;101213.75;;;30.80;49.17
51297;BME280;37380;45.186;9.792;2022-07-11T10:03:21;101226.22;;;29.90;51.88
51297;BME280;37380;45.186;9.792;2022-07-11T10:06:36;101212.22;;;30.29;51.45
51297;BME280;37380;45.186;9.792;2022-07-11T10:09:04;101168.84;;;30.79;49.95
51297;BME280;37380;45.186;9.792;2022-07-11T10:11:33;101154.94;;;30.88;49.26
51297;BME280;37380;45.186;9.792;2022-07-11T10:14:00;101185.59;;;30.87;47.99
51297;BME280;37380;45.186;9.792;2022-07-11T10:16:59;101186.03;;;30.08;51.05
51297;BME280;37380;45.186;9.792;2022-07-11T10:20:15;101216.22;;;30.63;49.50
51297;BME280;37380;45.186;9.792;2022-07-11T10:23:52;101197.72;;;31.40;47.87
51297;BME280;37380;45.186;9.792;2022-07-11T10:28:41;101211.41;;;31.35;48.67
51297;BME280;37380;45.186;9.792;2022-07-11T10:31:23;101211.34;;;32.55;44.07
51297;BME280;37380;45.186;9.792;2022-07-11T10:34:10;101195.47;;;31.70;45.69
51297;BME280;37380;45.186;9.792;2022-07-11T10:36:43;101193.19;;;32.94;43.23
51297;BME280;37380;45.186;9.792;2022-07-11T10:39:23;101202.03;;;31.44;46.09
51297;BME280;37380;45.186;9.792;2022-07-11T10:41:55;101189.78;;;31.15;47.83
51297;BME280;37380;45.186;9.792;2022-07-11T10:44:23;101198.41;;;31.03;48.38
51297;BME280;37380;45.186;9.792;2022-07-11T10:46:50;101195.91;;;30.76;48.59
51297;BME280;37380;45.186;9.792;2022-07-11T10:52:08;101177.66;;;31.25;48.17
51297;BME280;37380;45.186;9.792;2022-07-11T11:00:12;101171.44;;;31.03;48.18
51297;BME280;37380;45.186;9.792;2022-07-11T11:03:01;101187.38;;;31.29;48.90
51297;BME280;37380;45.186;9.792;2022-07-11T11:06:02;101145.84;;;31.52;46.74
51297;BME280;37380;45.186;9.792;2022-07-11T11:08:56;101185.75;;;32.24;44.27
51297;BME280;37380;45.186;9.792;2022-07-11T11:14:23;101189.41;;;33.66;41.50
51297;BME280;37380;45.186;9.792;2022-07-11T11:16:53;101150.66;;;33.81;38.95
51297;BME280;37380;45.186;9.792;2022-07-11T11:22:23;101172.41;;;33.46;42.23
51297;BME280;37380;45.186;9.792;2022-07-11T11:25:19;101171.78;;;31.96;46.44
51297;BME280;37380;45.186;9.792;2022-07-11T11:28:02;101151.00;;;31.77;46.80
51297;BME280;37380;45.186;9.792;2022-07-11T11:30:31;101117.34;;;31.85;46.04
51297;BME280;37380;45.186;9.792;2022-07-11T11:32:59;101137.31;;;31.62;47.70
51297;BME280;37380;45.186;9.792;2022-07-11T11:35:32;101136.63;;;31.77;46.90
51297;BME280;37380;45.186;9.792;2022-07-11T11:38:27;101137.53;;;32.15;45.48
51297;BME280;37380;45.186;9.792;2022-07-11T11:40:54;101166.88;;;32.42;44.65
51297;BME280;37380;45.186;9.792;2022-07-11T11:43:27;101163.75;;;31.34;47.96
51297;BME280;37380;45.186;9.792;2022-07-11T11:45:55;101132.44;;;31.51;46.66
51297;BME280;37380;45.186;9.792;2022-07-11T11:48:29;101116.03;;;31.74;46.36
51297;BME280;37380;45.186;9.792;2022-07-11T11:53:40;101126.66;;;31.58;47.71
51297;BME280;37380;45.186;9.792;2022-07-11T11:58:38;101147.19;;;31.63;45.59
51297;BME280;37380;45.186;9.792;2022-07-11T12:01:05;101159.38;;;31.92;45.52
51297;BME280;37380;45.186;9.792;2022-07-11T12:03:57;101135.28;;;31.27;46.58
51297;BME280;37380;45.186;9.792;2022-07-11T12:07:03;101125.69;;;30.79;47.79
51297;BME280;37380;45.186;9.792;2022-07-11T12:09:58;101139.59;;;31.31;46.60
51297;BME280;37380;45.186;9.792;2022-07-11T12:12:52;101140.13;;;31.19;48.15
51297;BME280;37380;45.186;9.792;2022-07-11T12:15:31;101126.78;;;30.96;48.73
51297;BME280;37380;45.186;9.792;2022-07-11T12:18:03;101082.88;;;30.70;47.52
51297;BME280;37380;45.186;9.792;2022-07-11T12:20:37;101122.16;;;30.98;47.73
51297;BME280;37380;45.186;9.792;2022-07-11T12:23:10;101114.59;;;31.26;45.63
51297;BME280;37380;45.186;9.792;2022-07-11T12:25:50;101095.25;;;31.17;44.88
51297;BME280;37380;45.186;9.792;2022-07-11T12:28:17;101128.25;;;30.82;48.81
51297;BME280;37380;45.186;9.792;2022-07-11T12:30:44;101111.44;;;30.54;47.46
51297;BME280;37380;45.186;9.792;2022-07-11T12:33:13;101124.66;;;30.82;47.76
51297;BME280;37380;45.186;9.792;2022-07-11T12:35:54;101122.16;;;31.18;46.29
51297;BME280;37380;45.186;9.792;2022-07-11T12:38:52;101101.63;;;31.34;45.02
51297;BME280;37380;45.186;9.792;2022-07-11T12:41:20;101070.88;;;30.77;45.57
51297;BME280;37380;45.186;9.792;2022-07-11T12:43:49;101103.47;;;30.51;46.73
51297;BME280;37380;45.186;9.792;2022-07-11T12:46:36;101053.19;;;30.50;45.19
51297;BME280;37380;45.186;9.792;2022-07-11T12:49:06;101080.81;;;30.34;46.75
51297;BME280;37380;45.186;9.792;2022-07-11T12:51:38;101102.59;;;30.72;45.45
51297;BME280;37380;45.186;9.792;2022-07-11T12:54:15;101104.66;;;30.87;45.33
51297;BME280;37380;45.186;9.792;2022-07-11T12:57:16;101114.16;;;31.17;44.46
51297;BME280;37380;45.186;9.792;2022-07-11T12:59:43;101107.22;;;30.90;44.30
51297;BME280;37380;45.186;9.792;2022-07-11T13:02:17;101094.00;;;31.24;43.58
51297;BME280;37380;45.186;9.792;2022-07-11T13:05:13;101102.88;;;31.27;44.41
51297;BME280;37380;45.186;9.792;2022-07-11T13:07:41;101072.13;;;31.11;43.80
51297;BME280;37380;45.186;9.792;2022-07-11T13:10:28;101102.00;;;31.66;43.94
51297;BME280;37380;45.186;9.792;2022-07-11T13:13:31;101098.50;;;31.83;45.37
51297;BME280;37380;45.186;9.792;2022-07-11T13:15:58;101064.41;;;31.43;44.00
51297;BME280;37380;45.186;9.792;2022-07-11T13:18:25;101091.19;;;31.85;44.46
51297;BME280;37380;45.186;9.792;2022-07-11T13:20:53;101074.84;;;32.07;42.47
51297;BME280;37380;45.186;9.792;2022-07-11T13:23:21;101104.06;;;31.99;41.89
51297;BME280;37380;45.186;9.792;2022-07-11T13:25:48;101078.19;;;31.16;43.63
51297;BME280;37380;45.186;9.792;2022-07-11T13:28:15;101090.97;;;31.31;43.10
51297;BME280;37380;45.186;9.792;2022-07-11T13:30:42;101080.94;;;31.35;44.34
51297;BME280;37380;45.186;9.792;2022-07-11T13:33:29;101071.44;;;30.85;44.12
51297;BME280;37380;45.186;9.792;2022-07-11T13:36:03;101091.22;;;30.43;44.45
51297;BME280;37380;45.186;9.792;2022-07-11T13:39:04;101072.56;;;30.59;44.64
51297;BME280;37380;45.186;9.792;2022-07-11T13:41:58;101080.41;;;31.06;45.01
51297;BME280;37380;45.186;9.792;2022-07-11T13:44:25;101065.63;;;31.15;43.68
51297;BME280;37380;45.186;9.792;2022-07-11T13:46:52;101052.81;;;31.00;42.92
51297;BME280;37380;45.186;9.792;2022-07-11T13:49:19;101079.53;;;31.06;45.26
51297;BME280;37380;45.186;9.792;2022-07-11T13:51:47;101036.34;;;30.65;44.52
51297;BME280;37380;45.186;9.792;2022-07-11T13:54:15;101041.75;;;30.65;43.85
51297;BME280;37380;45.186;9.792;2022-07-11T13:56:42;101057.66;;;31.12;43.20
51297;BME280;37380;45.186;9.792;2022-07-11T13:59:08;101035.53;;;31.24;43.99
51297;BME280;37380;45.186;9.792;2022-07-11T14:01:42;101066.19;;;30.82;43.01
51297;BME280;37380;45.186;9.792;2022-07-11T14:04:43;101054.00;;;31.33;41.97
51297;BME280;37380;45.186;9.792;2022-07-11T14:07:20;101046.47;;;30.80;42.50
51297;BME280;37380;45.186;9.792;2022-07-11T14:09:54;101048.63;;;31.13;42.08
51297;BME280;37380;45.186;9.792;2022-07-11T14:12:48;101054.81;;;31.15;42.90
51297;BME280;37380;45.186;9.792;2022-07-11T14:15:15;101024.91;;;30.80;44.52